createdAt,value
2023-03-05T00:00:26.980Z,33.17
2023-03-05T00:02:53.408Z,33.80
2023-03-05T00:05:19.767Z,32.23
2023-03-05T00:07:46.702Z,35.60
2023-03-05T00:10:13.058Z,35.40
2023-03-05T00:12:39.420Z,33.23
2023-03-05T00:15:06.602Z,34.50
2023-03-05T00:17:33.015Z,34.37
2023-03-05T00:20:01.309Z,31.53
2023-03-05T00:22:28.615Z,33.37
2023-03-05T00:24:54.978Z,34.80
2023-03-05T00:27:21.374Z,34.10
2023-03-05T00:29:47.739Z,32.30
2023-03-05T00:32:14.230Z,32.63
2023-03-05T00:34:40.631Z,33.77
2023-03-05T00:37:07.417Z,33.33
2023-03-05T00:39:33.758Z,33.70
2023-03-05T00:42:00.131Z,31.40
2023-03-05T00:44:26.535Z,34.30
2023-03-05T00:46:52.955Z,34.20
2023-03-05T00:49:19.599Z,33.10
2023-03-05T00:51:46.010Z,33.37
2023-03-05T00:54:12.358Z,32.27
2023-03-05T00:56:39.129Z,32.13
2023-03-05T00:59:05.614Z,34.23
2023-03-05T01:01:31.997Z,34.30
2023-03-05T01:03:59.843Z,32.13
2023-03-05T01:06:27.041Z,34.30
2023-03-05T01:08:53.506Z,31.10
2023-03-05T01:11:19.878Z,32.87
2023-03-05T01:13:46.232Z,32.30
2023-03-05T01:16:12.861Z,32.57
2023-03-05T01:18:40.143Z,33.70
2023-03-05T01:21:06.812Z,34.13
2023-03-05T01:23:35.552Z,34.20
2023-03-05T01:26:01.964Z,34.10
2023-03-05T01:28:28.530Z,34.40
2023-03-05T01:30:54.988Z,32.73
2023-03-05T01:33:21.468Z,33.50
2023-03-05T01:35:49.031Z,34.03
2023-03-05T01:38:16.105Z,33.37
2023-03-05T01:40:43.784Z,32.40
2023-03-05T01:43:12.947Z,34.23
2023-03-05T01:46:00.259Z,32.53
2023-03-05T01:48:27.434Z,32.63
2023-03-05T01:50:54.194Z,33.10
2023-03-05T01:53:20.567Z,30.93
2023-03-05T01:55:46.913Z,34.17
2023-03-05T01:58:13.997Z,34.50
2023-03-05T02:00:45.772Z,32.60
2023-03-05T02:03:14.173Z,34.00
2023-03-05T02:05:43.209Z,32.90
2023-03-05T02:08:15.250Z,32.87
2023-03-05T02:10:47.561Z,34.50
2023-03-05T02:13:17.812Z,34.00
2023-03-05T02:15:44.644Z,32.30
2023-03-05T02:18:11.083Z,34.07
2023-03-05T02:20:50.642Z,35.20
2023-03-05T02:23:19.305Z,34.10
2023-03-05T02:25:45.656Z,34.53
2023-03-05T02:28:18.420Z,33.53
2023-03-05T02:30:44.837Z,34.27
2023-03-05T02:33:12.874Z,31.90
2023-03-05T02:35:43.617Z,35.33
2023-03-05T02:38:11.756Z,33.70
2023-03-05T02:40:38.241Z,34.87
2023-03-05T02:43:04.996Z,35.30
2023-03-05T02:45:31.676Z,33.73
2023-03-05T02:47:58.118Z,33.30
2023-03-05T02:50:26.573Z,32.00
2023-03-05T02:52:52.933Z,33.83
2023-03-05T02:55:19.719Z,33.43
2023-03-05T02:57:46.140Z,34.10
2023-03-05T03:00:13.121Z,34.30
2023-03-05T03:02:39.651Z,33.60
2023-03-05T03:05:06.559Z,34.63
2023-03-05T03:07:34.374Z,35.97
2023-03-05T03:10:00.771Z,33.70
2023-03-05T03:12:27.236Z,34.67
2023-03-05T03:14:53.587Z,32.93
2023-03-05T03:17:20.342Z,35.47
2023-03-05T03:19:47.155Z,33.13
2023-03-05T03:22:15.533Z,32.00
2023-03-05T03:24:43.109Z,35.27
2023-03-05T03:27:10.405Z,32.80
2023-03-05T03:29:37.176Z,31.33
2023-03-05T03:32:04.639Z,32.17
2023-03-05T03:34:31.053Z,34.80
2023-03-05T03:36:57.396Z,31.50
2023-03-05T03:39:25.368Z,34.50
2023-03-05T03:41:53.174Z,34.37
2023-03-05T03:44:21.496Z,33.10
2023-03-05T03:46:50.055Z,33.23
2023-03-05T03:49:19.991Z,34.20
2023-03-05T03:51:47.682Z,32.57
2023-03-05T03:54:15.426Z,32.80
2023-03-05T03:56:42.235Z,35.23
2023-03-05T03:59:09.052Z,35.20
2023-03-05T04:01:35.764Z,32.77
2023-03-05T04:04:02.370Z,33.03
2023-03-05T04:06:28.744Z,33.80
2023-03-05T04:08:55.128Z,32.43
2023-03-05T04:11:21.775Z,34.33
2023-03-05T04:13:48.958Z,35.93
2023-03-05T04:16:16.178Z,33.17
2023-03-05T04:18:42.954Z,32.20
2023-03-05T04:21:09.418Z,32.20
2023-03-05T04:23:35.830Z,33.37
2023-03-05T04:26:02.390Z,33.20
2023-03-05T04:28:28.980Z,34.70
2023-03-05T04:30:55.543Z,32.87
2023-03-05T04:33:21.994Z,33.00
2023-03-05T04:35:48.376Z,35.87
2023-03-05T04:38:14.842Z,34.10
2023-03-05T04:40:41.411Z,33.27
2023-03-05T04:43:07.896Z,32.90
2023-03-05T04:45:34.297Z,35.80
2023-03-05T04:48:00.886Z,37.30
2023-03-05T04:50:27.307Z,31.10
2023-03-05T04:52:53.954Z,34.27
2023-03-05T04:55:20.390Z,35.87
2023-03-05T04:57:46.956Z,33.90
2023-03-05T05:00:15.265Z,35.20
2023-03-05T05:02:43.576Z,32.37
2023-03-05T05:05:12.926Z,33.83
2023-03-05T05:07:39.390Z,35.37
2023-03-05T05:10:07.970Z,36.17
2023-03-05T05:12:35.058Z,33.43
2023-03-05T05:15:01.515Z,33.10
2023-03-05T05:17:30.749Z,33.57
2023-03-05T05:19:57.265Z,34.23
2023-03-05T05:22:23.812Z,33.40
2023-03-05T05:24:50.251Z,33.10
2023-03-05T05:27:16.594Z,32.87
2023-03-05T05:29:42.981Z,33.57
2023-03-05T05:32:09.458Z,33.83
2023-03-05T05:34:35.831Z,34.17
2023-03-05T05:37:02.186Z,33.33
2023-03-05T05:39:28.587Z,33.87
2023-03-05T05:41:54.949Z,33.70
2023-03-05T05:44:21.340Z,33.97
2023-03-05T05:46:47.768Z,33.90
2023-03-05T05:49:14.201Z,33.27
2023-03-05T05:51:40.585Z,35.13
2023-03-05T05:54:06.929Z,35.27
2023-03-05T05:56:33.831Z,33.53
2023-03-05T05:59:00.212Z,33.70
2023-03-05T06:01:29.910Z,34.17
2023-03-05T06:03:57.536Z,31.27
2023-03-05T06:06:25.669Z,34.10
2023-03-05T06:08:52.476Z,34.30
2023-03-05T06:11:19.914Z,34.70
2023-03-05T06:13:47.395Z,34.07
2023-03-05T06:16:20.197Z,34.10
2023-03-05T06:18:46.701Z,34.90
2023-03-05T06:21:17.748Z,33.20
2023-03-05T06:23:45.801Z,34.50
2023-03-05T06:26:15.279Z,33.40
2023-03-05T06:28:41.620Z,34.67
2023-03-05T06:31:14.611Z,35.37
2023-03-05T06:33:41.831Z,32.23
2023-03-05T06:36:10.778Z,33.33
2023-03-05T06:38:37.530Z,35.30
2023-03-05T06:41:06.453Z,36.33
2023-03-05T06:43:33.444Z,35.20
2023-03-05T06:46:05.235Z,33.47
2023-03-05T06:48:31.827Z,35.10
2023-03-05T06:50:58.184Z,34.07
2023-03-05T06:53:25.513Z,33.00
2023-03-05T06:55:53.001Z,36.53
2023-03-05T06:58:19.802Z,34.30
2023-03-05T07:00:46.264Z,34.00
2023-03-05T07:03:13.153Z,32.93
2023-03-05T07:05:41.120Z,34.00
2023-03-05T07:08:08.242Z,33.53
2023-03-05T07:10:41.965Z,35.70
2023-03-05T07:13:09.869Z,35.20
2023-03-05T07:15:40.750Z,33.50
2023-03-05T07:18:07.456Z,33.30
2023-03-05T07:20:35.584Z,35.87
2023-03-05T07:23:02.683Z,33.13
2023-03-05T07:25:29.413Z,33.90
2023-03-05T07:27:56.330Z,33.37
2023-03-05T07:30:22.652Z,33.83
2023-03-05T07:32:49.018Z,35.47
2023-03-05T07:35:15.491Z,32.80
2023-03-05T07:37:41.888Z,30.80
2023-03-05T07:40:09.097Z,33.27
2023-03-05T07:42:35.519Z,30.30
2023-03-05T07:45:01.950Z,33.40
2023-03-05T07:47:28.377Z,32.70
2023-03-05T07:49:54.851Z,33.63
2023-03-05T07:52:21.634Z,31.47
2023-03-05T07:54:47.973Z,31.27
2023-03-05T07:57:14.381Z,31.70
2023-03-05T07:59:40.742Z,33.20
2023-03-05T08:02:07.212Z,31.60
2023-03-05T08:04:33.630Z,31.60
2023-03-05T08:07:00.346Z,33.20
2023-03-05T08:09:28.552Z,32.73
2023-03-05T08:11:54.906Z,32.90
2023-03-05T08:14:21.261Z,32.30
2023-03-05T08:16:51.952Z,30.47
2023-03-05T08:19:19.533Z,30.97
2023-03-05T08:21:46.506Z,31.60
2023-03-05T08:24:13.596Z,31.07
2023-03-05T08:26:41.045Z,30.70
2023-03-05T08:29:08.296Z,33.07
2023-03-05T08:31:36.099Z,31.00
2023-03-05T08:34:03.164Z,31.43
2023-03-05T08:36:29.924Z,30.63
2023-03-05T08:38:58.590Z,30.50
2023-03-05T08:41:25.048Z,31.53
2023-03-05T08:43:51.432Z,30.60
2023-03-05T08:46:17.986Z,31.40
2023-03-05T08:48:45.424Z,32.20
2023-03-05T08:51:15.218Z,30.63
2023-03-05T08:53:43.318Z,30.60
2023-03-05T08:56:10.189Z,32.47
2023-03-05T08:58:36.905Z,32.20
2023-03-05T09:01:04.104Z,31.37
2023-03-05T09:03:30.656Z,31.30
2023-03-05T09:06:06.182Z,32.60
2023-03-05T09:08:32.809Z,29.90
2023-03-05T09:11:02.511Z,32.70
2023-03-05T09:13:28.900Z,31.90
2023-03-05T09:15:57.427Z,31.37
2023-03-05T09:18:23.913Z,31.50
2023-03-05T09:20:50.293Z,31.20
2023-03-05T09:23:16.765Z,33.47
2023-03-05T09:25:43.377Z,34.67
2023-03-05T09:28:09.881Z,34.40
2023-03-05T09:30:36.265Z,36.47
2023-03-05T09:33:03.831Z,36.53
2023-03-05T09:35:30.693Z,38.20
2023-03-05T09:37:57.049Z,36.33
2023-03-05T09:40:23.584Z,33.50
2023-03-05T09:43:47.016Z,35.67
2023-03-05T09:46:22.178Z,35.77
2023-03-05T09:48:50.142Z,35.47
2023-03-05T09:51:23.001Z,36.03
2023-03-05T09:54:03.327Z,35.60
2023-03-05T09:56:34.976Z,34.47
2023-03-05T09:59:19.898Z,37.20
2023-03-05T10:01:48.692Z,37.20
2023-03-05T10:04:24.303Z,37.57
2023-03-05T10:06:58.254Z,41.87
2023-03-05T10:09:43.787Z,38.30
2023-03-05T10:12:32.500Z,37.90
2023-03-05T10:15:00.610Z,37.60
2023-03-05T10:17:57.541Z,37.83
2023-03-05T10:20:26.682Z,39.27
2023-03-05T10:23:13.560Z,40.83
2023-03-05T10:25:54.128Z,38.83
2023-03-05T10:28:47.594Z,41.70
2023-03-05T10:31:35.935Z,46.83
2023-03-05T10:34:12.173Z,42.17
2023-03-05T10:37:01.042Z,41.67
2023-03-05T10:39:32.980Z,40.93
2023-03-05T10:42:07.002Z,40.50
2023-03-05T10:44:41.976Z,40.10
2023-03-05T10:47:31.624Z,43.53
2023-03-05T10:49:59.024Z,42.40
2023-03-05T10:52:33.114Z,40.83
2023-03-05T10:54:59.744Z,37.57
2023-03-05T10:57:28.664Z,41.80
2023-03-05T11:00:36.981Z,39.73
2023-03-05T11:03:09.870Z,38.30
2023-03-05T11:05:47.312Z,37.37
2023-03-05T11:08:22.441Z,38.90
2023-03-05T11:11:03.869Z,32.67
2023-03-05T11:13:30.874Z,33.17
2023-03-05T11:16:02.272Z,32.50
2023-03-05T11:18:34.142Z,31.30
2023-03-05T11:21:12.261Z,31.00
2023-03-05T11:23:38.957Z,28.63
2023-03-05T11:26:21.968Z,26.60
2023-03-05T11:28:54.420Z,23.37
2023-03-05T11:31:24.337Z,22.20
2023-03-05T11:33:57.340Z,19.57
2023-03-05T11:36:35.484Z,20.57
2023-03-05T11:39:11.891Z,21.90
2023-03-05T11:41:47.765Z,24.97
2023-03-05T11:44:55.828Z,21.40
2023-03-05T11:47:39.451Z,20.07
2023-03-05T11:50:17.323Z,17.60
2023-03-05T11:52:59.196Z,16.97
2023-03-05T11:55:34.306Z,18.23
2023-03-05T11:58:06.729Z,17.77
2023-03-05T12:00:36.644Z,19.27
2023-03-05T12:03:10.875Z,20.17
2023-03-05T12:05:40.390Z,17.80
2023-03-05T12:08:14.574Z,21.07
2023-03-05T12:10:41.120Z,18.00
2023-03-05T12:13:22.296Z,17.80
2023-03-05T12:16:03.694Z,18.40
2023-03-05T12:18:52.000Z,18.40
2023-03-05T12:21:33.158Z,21.40
2023-03-05T12:24:02.029Z,20.40
2023-03-05T12:26:53.234Z,19.80
2023-03-05T12:29:51.490Z,18.60
2023-03-05T12:32:33.147Z,19.90
2023-03-05T12:35:04.126Z,21.27
2023-03-05T12:37:31.021Z,20.40
2023-03-05T12:39:57.287Z,21.70
2023-03-05T12:42:29.413Z,22.77
2023-03-05T12:45:19.033Z,21.13
2023-03-05T12:47:47.475Z,20.37
2023-03-05T12:50:26.344Z,20.10
2023-03-05T12:52:54.029Z,20.77
2023-03-05T12:55:24.290Z,18.07
2023-03-05T12:58:00.268Z,20.80
2023-03-05T13:00:51.957Z,20.17
2023-03-05T13:03:23.611Z,20.80
2023-03-05T13:05:52.579Z,20.67
2023-03-05T13:08:28.218Z,18.80
2023-03-05T13:11:00.156Z,18.00
2023-03-05T13:13:33.309Z,17.37
2023-03-05T13:16:00.851Z,17.13
2023-03-05T13:18:35.711Z,15.67
2023-03-05T13:21:08.564Z,17.93
2023-03-05T13:23:35.551Z,17.63
2023-03-05T13:26:18.259Z,16.20
2023-03-05T13:29:02.421Z,17.60
2023-03-05T13:31:28.839Z,18.23
2023-03-05T13:34:14.375Z,16.27
2023-03-05T13:36:46.705Z,18.57
2023-03-05T13:39:27.165Z,17.27
2023-03-05T13:42:02.144Z,16.93
2023-03-05T13:44:30.005Z,16.70
2023-03-05T13:47:16.857Z,16.77
2023-03-05T13:49:44.023Z,18.70
2023-03-05T13:52:11.049Z,16.47
2023-03-05T13:54:38.072Z,16.17
2023-03-05T13:57:07.837Z,18.17
2023-03-05T13:59:39.037Z,18.43
2023-03-05T14:02:18.289Z,20.20
2023-03-05T14:04:46.212Z,20.40
2023-03-05T14:07:31.276Z,19.30
2023-03-05T14:09:57.678Z,19.80
2023-03-05T14:12:40.759Z,18.80
2023-03-05T14:15:26.205Z,17.00
2023-03-05T14:18:07.081Z,17.27
2023-03-05T14:20:33.460Z,17.60
2023-03-05T14:23:01.504Z,16.87
2023-03-05T14:25:30.268Z,18.67
2023-03-05T14:27:57.498Z,16.20
2023-03-05T14:30:25.189Z,18.20
2023-03-05T14:32:54.917Z,18.30
2023-03-05T14:35:25.151Z,18.67
2023-03-05T14:37:53.811Z,18.57
2023-03-05T14:40:21.986Z,18.23
2023-03-05T14:42:59.161Z,18.07
2023-03-05T14:45:43.598Z,17.43
2023-03-05T14:48:12.841Z,17.93
2023-03-05T14:50:44.131Z,17.77
2023-03-05T14:53:21.870Z,18.10
2023-03-05T14:55:51.055Z,19.20
2023-03-05T14:58:21.703Z,19.03
2023-03-05T15:00:51.089Z,17.30
2023-03-05T15:03:19.335Z,18.53
2023-03-05T15:05:48.370Z,18.30
2023-03-05T15:08:20.705Z,19.20
2023-03-05T15:10:47.374Z,18.40
2023-03-05T15:13:15.148Z,18.83
2023-03-05T15:15:42.632Z,18.17
2023-03-05T15:18:13.353Z,19.03
2023-03-05T15:20:40.549Z,21.63
2023-03-05T15:23:06.927Z,21.97
2023-03-05T15:25:33.464Z,21.07
2023-03-05T15:27:59.814Z,18.30
2023-03-05T15:30:30.663Z,18.73
2023-03-05T15:33:00.034Z,18.90
2023-03-05T15:35:26.505Z,17.97
2023-03-05T15:37:53.265Z,16.87
2023-03-05T15:40:21.113Z,18.10
2023-03-05T15:42:48.542Z,17.70
2023-03-05T15:45:14.962Z,18.10
2023-03-05T15:47:41.325Z,19.00
2023-03-05T15:50:09.084Z,20.20
2023-03-05T15:52:35.405Z,19.70
2023-03-05T15:55:02.412Z,18.40
2023-03-05T15:57:29.199Z,18.97
2023-03-05T15:59:55.853Z,18.87
2023-03-05T16:02:22.417Z,18.80
2023-03-05T16:04:48.744Z,18.60
2023-03-05T16:07:15.619Z,18.30
2023-03-05T16:09:46.337Z,18.57
2023-03-05T16:12:16.042Z,20.17
2023-03-05T16:14:42.482Z,21.13
2023-03-05T16:17:09.026Z,18.80
2023-03-05T16:19:39.549Z,19.13
2023-03-05T16:22:05.966Z,17.80
2023-03-05T16:24:33.210Z,19.87
2023-03-05T16:26:59.562Z,57.67
2023-03-05T16:29:27.342Z,19.43
2023-03-05T16:31:54.877Z,23.80
2023-03-05T16:34:21.320Z,29.47
2023-03-05T16:36:52.441Z,17.33
2023-03-05T16:39:20.624Z,19.53
2023-03-05T16:41:47.102Z,19.83
2023-03-05T16:44:13.603Z,20.17
2023-03-05T16:46:41.851Z,20.73
2023-03-05T16:49:08.575Z,20.40
2023-03-05T16:51:35.293Z,22.30
2023-03-05T16:54:01.676Z,21.33
2023-03-05T16:56:28.050Z,22.27
2023-03-05T16:58:56.297Z,23.63
2023-03-05T17:01:23.708Z,23.10
2023-03-05T17:03:52.345Z,21.73
2023-03-05T17:06:24.023Z,24.37
2023-03-05T17:08:51.369Z,21.03
2023-03-05T17:11:17.928Z,24.33
2023-03-05T17:13:46.503Z,22.30
2023-03-05T17:16:16.379Z,22.90
2023-03-05T17:18:42.983Z,21.90
2023-03-05T17:21:10.407Z,22.00
2023-03-05T17:23:38.127Z,25.23
2023-03-05T17:26:10.664Z,23.00
2023-03-05T17:28:36.992Z,23.40
2023-03-05T17:31:03.924Z,23.80
2023-03-05T17:33:34.623Z,24.20
2023-03-05T17:36:01.653Z,20.63
2023-03-05T17:38:28.376Z,17.67
2023-03-05T17:40:55.056Z,15.97
2023-03-05T17:43:22.461Z,13.20
2023-03-05T17:45:48.939Z,11.50
2023-03-05T17:48:16.071Z,12.50
2023-03-05T17:50:44.797Z,10.70
2023-03-05T17:53:11.121Z,10.87
2023-03-05T17:55:38.827Z,10.10
2023-03-05T17:58:05.160Z,9.40
2023-03-05T18:00:32.066Z,9.10
2023-03-05T18:02:58.997Z,9.73
2023-03-05T18:05:25.919Z,9.13
2023-03-05T18:07:52.773Z,8.20
2023-03-05T18:10:20.618Z,8.10
2023-03-05T18:12:47.381Z,9.97
2023-03-05T18:15:17.182Z,9.40
2023-03-05T18:17:44.188Z,9.23
2023-03-05T18:20:35.813Z,14.73
2023-03-05T18:23:04.508Z,10.33
2023-03-05T18:25:31.502Z,12.70
2023-03-05T18:28:04.184Z,10.97
2023-03-05T18:30:31.311Z,9.77
2023-03-05T18:32:57.925Z,8.73
2023-03-05T18:35:24.770Z,11.20
2023-03-05T18:37:51.496Z,9.57
2023-03-05T18:40:20.775Z,10.77
2023-03-05T18:42:47.293Z,10.37
2023-03-05T18:45:15.477Z,9.13
2023-03-05T18:47:42.240Z,9.80
2023-03-05T18:50:14.797Z,10.50
2023-03-05T18:52:42.505Z,9.57
2023-03-05T18:55:16.180Z,10.17
2023-03-05T18:57:42.558Z,10.00
2023-03-05T19:00:11.591Z,11.10
2023-03-05T19:02:37.950Z,9.77
2023-03-05T19:05:04.570Z,8.93
2023-03-05T19:07:33.711Z,8.97
2023-03-05T19:10:07.249Z,10.50
2023-03-05T19:13:26.201Z,10.60
2023-03-05T19:15:52.672Z,10.30
2023-03-05T19:18:59.692Z,9.23
2023-03-05T19:21:26.074Z,9.27
2023-03-05T19:23:52.414Z,10.87
2023-03-05T19:26:18.768Z,9.90
2023-03-05T19:28:45.208Z,11.17
2023-03-05T19:31:13.873Z,14.30
2023-03-05T19:33:40.746Z,20.67
2023-03-05T19:36:09.190Z,14.27
2023-03-05T19:38:35.593Z,12.20
2023-03-05T19:41:01.960Z,15.57
2023-03-05T19:43:28.428Z,10.20
2023-03-05T19:46:01.398Z,10.40
2023-03-05T19:48:28.315Z,10.60
2023-03-05T19:50:54.696Z,10.60
2023-03-05T19:53:21.166Z,10.60
2023-03-05T19:55:47.494Z,9.10
2023-03-05T19:58:13.842Z,9.90
2023-03-05T20:00:40.468Z,10.50
2023-03-05T20:03:06.888Z,10.33
2023-03-05T20:05:33.221Z,10.70
2023-03-05T20:07:59.571Z,10.00
2023-03-05T20:10:26.057Z,11.40
2023-03-05T20:12:52.434Z,9.87
2023-03-05T20:15:19.262Z,11.17
2023-03-05T20:17:45.786Z,11.43
2023-03-05T20:20:17.965Z,9.13
2023-03-05T20:22:46.255Z,10.33
2023-03-05T20:25:24.639Z,9.70
2023-03-05T20:27:51.619Z,10.40
2023-03-05T20:30:19.041Z,11.73
2023-03-05T20:32:45.759Z,9.30
2023-03-05T20:35:17.924Z,10.90
2023-03-05T20:38:32.723Z,9.40
2023-03-05T20:41:00.676Z,11.37
2023-03-05T20:43:32.839Z,11.53
2023-03-05T20:46:00.184Z,11.40
2023-03-05T20:48:28.895Z,10.80
2023-03-05T20:50:55.651Z,17.40
2023-03-05T20:53:22.405Z,19.40
2023-03-05T20:55:49.261Z,16.00
2023-03-05T20:58:15.934Z,10.60
2023-03-05T21:00:42.658Z,10.00
2023-03-05T21:03:09.455Z,11.23
2023-03-05T21:05:36.817Z,9.60
2023-03-05T21:08:06.516Z,10.70
2023-03-05T21:10:33.201Z,9.30
2023-03-05T21:13:00.956Z,11.43
2023-03-05T21:15:29.203Z,9.80
2023-03-05T21:17:55.732Z,9.30
2023-03-05T21:20:27.402Z,10.40
2023-03-05T21:22:55.124Z,10.43
2023-03-05T21:25:25.807Z,10.80
2023-03-05T21:27:58.127Z,10.60
2023-03-05T21:30:34.325Z,9.90
2023-03-05T21:33:02.109Z,11.00
2023-03-05T21:35:29.560Z,10.43
2023-03-05T21:37:55.921Z,10.63
2023-03-05T21:40:22.398Z,10.57
2023-03-05T21:42:49.499Z,10.77
2023-03-05T21:45:19.874Z,11.10
2023-03-05T21:47:47.646Z,11.73
2023-03-05T21:50:16.793Z,13.23
2023-03-05T21:52:43.256Z,12.93
2023-03-05T21:55:18.700Z,11.40
2023-03-05T21:57:46.411Z,10.07
2023-03-05T22:00:14.157Z,10.37
2023-03-05T22:02:41.654Z,9.23
2023-03-05T22:05:12.619Z,11.77
2023-03-05T22:07:40.070Z,10.13
2023-03-05T22:10:06.964Z,10.50
2023-03-05T22:13:10.911Z,9.90
2023-03-05T22:15:52.281Z,10.50
2023-03-05T22:18:21.206Z,9.10
2023-03-05T22:20:48.267Z,10.40
2023-03-05T22:23:15.876Z,9.03
2023-03-05T22:25:43.038Z,10.23
2023-03-05T22:28:11.317Z,9.27
2023-03-05T22:30:43.602Z,11.17
2023-03-05T22:33:10.947Z,10.50
2023-03-05T22:35:41.525Z,10.60
2023-03-05T22:38:09.260Z,10.77
2023-03-05T22:40:39.365Z,11.50
2023-03-05T22:43:05.693Z,10.67
2023-03-05T22:45:32.149Z,9.80
2023-03-05T22:47:58.518Z,9.23
2023-03-05T22:50:25.073Z,9.50
2023-03-05T22:52:51.722Z,10.73
2023-03-05T22:55:18.318Z,11.13
2023-03-05T22:57:45.042Z,10.67
2023-03-05T23:00:16.795Z,11.17
2023-03-05T23:02:44.049Z,10.70
2023-03-05T23:05:11.329Z,11.43
2023-03-05T23:07:40.080Z,10.00
2023-03-05T23:10:10.620Z,10.53
2023-03-05T23:12:41.081Z,11.07
2023-03-05T23:15:09.885Z,10.07
2023-03-05T23:17:36.297Z,10.67
2023-03-05T23:20:04.995Z,11.07
2023-03-05T23:22:31.393Z,10.83
2023-03-05T23:24:57.810Z,9.70
2023-03-05T23:27:24.209Z,10.90
2023-03-05T23:30:23.601Z,10.57
2023-03-05T23:32:51.198Z,11.37
2023-03-05T23:35:39.356Z,10.70
2023-03-05T23:38:09.018Z,10.60
2023-03-05T23:40:47.146Z,10.67
2023-03-05T23:43:14.790Z,9.60
2023-03-05T23:45:47.902Z,9.50
2023-03-05T23:48:16.532Z,11.03
2023-03-05T23:50:45.244Z,9.30
2023-03-05T23:53:20.764Z,9.47
2023-03-05T23:55:48.409Z,9.67
2023-03-05T23:58:15.478Z,10.20
